Résultats de la compétition "Longue distance Livernon 01/11/2010" du 01-11-2010 organisée par le comité départemental du 46 - Lot
     
  Télécharger le fichier CSV.  
     
     

 Circuit "Circuit Kbis"

Licence Nom Prénom Temps CN
précédent
Score sur
la course
Différence
17925DROINSolene0:31:5924792887+408
10430VALETTEMarion0:35:0218972636+739
16393FOLLoreline0:35:0529432632-311
16555PICAZOMarie0:35:2329272610-317
16137ELIASPauline0:36:0723432557+214
6487MOLINIERCaroline0:36:4531302513-617
13800DELENNECamillia0:37:4724552444-11
23384BASSETFiona0:38:23N/A2406N/A
12709BEAUVIRMaelle0:40:4625212265-256
8914BONDIVENNEPerrine0:41:2228832232-651
22315CHARDOTMarion0:42:4320242162+138
22451RIVOLLIERIsaline0:46:1401997N/A
21188ANGLADELucile0:47:0613231961+638
23540DAMIENSAudrey0:47:51N/A1930N/A
23609MINETClémence0:51:38N/A1788N/A
9996ROCHSophie0:52:5016171748+131
10758BESTELSandra0:54:3726241691-933
22991PEYRARDJulie0:56:04N/A1647N/A
12609PRATCharline1:05:0815831418-165
23427BULLIERAlisson1:06:50N/A1382N/A
20022PELLETIERMathilde1:11:404991289+790
16272COTTRETCaroline1:12:0017401283-457
23668FERNANDEZLauriane1:15:17N/A1227N/A
23595DELCUSEJulie1:16:46N/A1203N/A
23768ROBARTBlanche1:17:07N/A1197N/A
12045CHAILLARDDanaN/A17570-1757
22224HEBERTDelphineN/A15770-1577
22250PARENTMathildeN/A13340-1334
13672BLUMSylvainN/A26640-2664

  Indice de confiance du circuit (moyenne des différences entre CN et score sur la course des 3 à 10 premiers) : 320






 Retour